Time;durP1;ratioP1;P1;durP2;ratioP2;P2;SDS_P1;SDS_P2;PMS_P1;PMS_P2;Temp;Humidity;BMP_temperature;BMP_pressure;BME280_temperature;BME280_humidity;BME280_pressure;Samples;Min_cycle;Max_cycle;Signal;HPM_P1;HPM_P2
2023/01/29 00:00:15;;;;;;;;;38.00;35.00;;;;;4.61;52.88;102270.50;5032792;28;50317;-52
2023/01/29 00:02:40;;;;;;;;;47.50;39.25;;;;;4.60;54.01;102274.84;5035847;28;45617;-58
2023/01/29 00:05:06;;;;;;;;;38.75;38.50;;;;;4.61;53.93;102267.91;5034121;28;45473;-54
2023/01/29 00:07:32;;;;;;;;;48.25;39.25;;;;;4.67;53.70;102270.59;5038319;28;45492;-54
2023/01/29 00:09:57;;;;;;;;;35.25;30.75;;;;;4.69;53.27;102265.41;5037578;28;45448;-52
2023/01/29 00:12:23;;;;;;;;;42.00;34.75;;;;;4.70;53.59;102264.53;5038142;28;46373;-54
2023/01/29 00:14:48;;;;;;;;;37.00;35.50;;;;;4.69;53.77;102261.06;5036971;28;45804;-53
2023/01/29 00:17:13;;;;;;;;;39.75;36.25;;;;;4.71;53.09;102272.41;5038276;28;45345;-56
2023/01/29 00:19:38;;;;;;;;;49.25;42.25;;;;;4.71;53.67;102276.75;5036988;28;46992;-54
2023/01/29 00:22:04;;;;;;;;;44.50;40.25;;;;;4.72;53.60;102278.50;5037624;28;45468;-56
2023/01/29 00:24:29;;;;;;;;;44.00;39.75;;;;;4.73;53.75;102267.19;5037135;28;45384;-53
2023/01/29 00:26:54;;;;;;;;;42.00;38.50;;;;;4.74;53.25;102268.97;5037267;28;45431;-55
2023/01/29 00:29:20;;;;;;;;;43.00;39.25;;;;;4.73;53.13;102257.69;5037502;28;46967;-58
2023/01/29 00:31:46;;;;;;;;;40.75;36.75;;;;;4.74;53.07;102255.94;5033934;28;47214;-57
2023/01/29 00:34:12;;;;;;;;;46.00;38.25;;;;;4.75;53.00;102261.16;5036820;28;45395;-53
2023/01/29 00:36:37;;;;;;;;;46.00;39.25;;;;;4.74;53.13;102253.34;5036684;28;45480;-54
2023/01/29 00:39:09;;;;;;;;;44.75;39.50;;;;;4.71;53.27;102251.56;5037748;28;45491;-56
2023/01/29 00:47:29;;;;;;;;;46.25;37.50;;;;;4.71;53.84;102259.38;5036756;28;45467;-51
2023/01/29 00:49:49;;;;;;;;;46.00;38.50;;;;;4.72;53.27;102244.59;5036779;28;45715;-55
2023/01/29 00:52:24;;;;;;;;;36.50;34.00;;;;;4.72;53.46;102242.88;5037561;28;46305;-58
2023/01/29 00:54:57;;;;;;;;;39.25;35.00;;;;;4.72;53.74;102252.44;5036143;28;45528;-57
2023/01/29 00:57:25;;;;;;;;;46.50;40.75;;;;;4.72;53.68;102257.63;5037745;28;45476;-49
2023/01/29 00:59:51;;;;;;;;;48.25;39.25;;;;;4.70;53.88;102248.91;5036847;28;45470;-56
2023/01/29 01:05:05;;;;;;;;;45.25;41.00;;;;;4.71;53.32;102242.88;5035592;28;45404;-57
2023/01/29 01:07:30;;;;;;;;;48.75;40.25;;;;;4.63;53.25;102232.31;5037495;28;45297;-56
2023/01/29 01:12:39;;;;;;;;;34.75;32.50;;;;;4.68;53.49;102238.47;5025394;28;45314;-59
2023/01/29 01:15:05;;;;;;;;;43.75;38.50;;;;;4.68;53.88;102237.63;5036376;28;45403;-59
2023/01/29 01:17:30;;;;;;;;;40.75;35.50;;;;;4.72;53.51;102239.41;5037477;28;45494;-52
2023/01/29 01:19:56;;;;;;;;;41.50;38.00;;;;;4.71;53.67;102242.88;5036297;28;45443;-59
2023/01/29 01:22:21;;;;;;;;;39.00;37.25;;;;;4.70;53.95;102239.38;5037021;28;46340;-53
2023/01/29 01:24:46;;;;;;;;;40.00;34.25;;;;;4.71;53.49;102238.53;5034700;28;45530;-56
2023/01/29 01:27:12;;;;;;;;;39.75;36.00;;;;;4.73;54.07;102238.53;5037091;28;45529;-53
2023/01/29 01:29:37;;;;;;;;;41.00;37.75;;;;;4.69;53.90;102231.53;5036160;28;45633;-58
2023/01/29 01:32:03;;;;;;;;;43.75;39.75;;;;;4.72;53.93;102242.88;5036450;28;45429;-56
2023/01/29 01:34:29;;;;;;;;;50.75;39.25;;;;;4.74;53.60;102242.91;5036755;28;45426;-57
2023/01/29 01:36:55;;;;;;;;;51.50;40.00;;;;;4.72;53.87;102240.25;5036115;28;45451;-55
2023/01/29 01:39:21;;;;;;;;;44.25;38.50;;;;;4.72;53.97;102244.59;5035972;28;45439;-53
2023/01/29 01:41:46;;;;;;;;;45.00;39.00;;;;;4.72;54.00;102245.47;5036387;28;45402;-56
2023/01/29 01:44:49;;;;;;;;;42.00;38.75;;;;;4.70;54.19;102246.31;5035367;28;46895;-51
2023/01/29 01:47:19;;;;;;;;;40.75;37.75;;;;;4.63;54.43;102235.78;5025890;28;45408;-55
2023/01/29 01:49:46;;;;;;;;;40.50;35.75;;;;;4.62;53.72;102240.97;5035725;28;45373;-53
2023/01/29 01:52:13;;;;;;;;;47.25;39.75;;;;;4.63;53.83;102243.63;5036008;28;45501;-53
2023/01/29 01:54:38;;;;;;;;;45.75;41.00;;;;;4.61;54.18;102249.66;5035610;28;45626;-58
2023/01/29 01:57:14;;;;;;;;;46.25;40.25;;;;;4.63;53.50;102253.16;5036397;28;45440;-59
2023/01/29 01:59:45;;;;;;;;;41.75;39.75;;;;;4.62;54.02;102254.00;5035863;28;45515;-52
2023/01/29 02:10:36;;;;;;;;;51.25;41.25;;;;;4.60;53.97;102253.13;5035367;28;45342;-50
2023/01/29 02:13:03;;;;;;;;;44.25;40.00;;;;;4.60;54.06;102258.34;5035562;28;45526;-54
2023/01/29 02:15:28;;;;;;;;;45.00;38.50;;;;;4.60;54.18;102256.59;5036090;28;45477;-53
2023/01/29 02:17:53;;;;;;;;;55.75;42.50;;;;;4.59;54.25;102266.97;5017805;28;45683;-54
2023/01/29 02:20:25;;;;;;;;;47.75;44.25;;;;;4.57;54.03;102261.75;5036210;28;45503;-53
2023/01/29 02:22:58;;;;;;;;;57.00;44.00;;;;;4.60;54.04;102263.53;5034011;28;45518;-53
2023/01/29 02:25:56;;;;;;;;;48.25;39.75;;;;;4.57;54.51;102256.56;5035549;28;45333;-53
2023/01/29 02:28:36;;;;;;;;;48.75;41.25;;;;;4.55;53.85;102257.38;4991253;28;45500;-54
2023/01/29 02:31:11;;;;;;;;;55.50;44.00;;;;;4.49;54.15;102250.34;5034628;28;45365;-57
2023/01/29 02:33:55;;;;;;;;;46.50;39.75;;;;;4.49;54.25;102252.09;5033973;28;46259;-59
2023/01/29 02:36:28;;;;;;;;;44.50;40.75;;;;;4.45;54.90;102258.94;5028313;28;45383;-59
2023/01/29 02:39:11;;;;;;;;;52.50;42.75;;;;;4.45;54.34;102253.72;5035893;28;45463;-56
2023/01/29 02:41:46;;;;;;;;;49.00;41.25;;;;;4.44;55.15;102265.03;5035248;28;45392;-53
2023/01/29 02:44:38;;;;;;;;;49.25;41.25;;;;;4.42;55.03;102266.72;5034783;28;46070;-52
2023/01/29 02:47:21;;;;;;;;;50.25;41.75;;;;;4.42;54.59;102254.56;5034899;28;45539;-53
2023/01/29 02:50:05;;;;;;;;;58.00;44.75;;;;;4.42;55.01;102249.34;5035885;28;45377;-55
2023/01/29 02:52:35;;;;;;;;;51.75;43.75;;;;;4.42;54.54;102240.66;5034012;28;45423;-58
2023/01/29 02:55:11;;;;;;;;;52.75;43.00;;;;;4.44;54.64;102238.97;5035406;28;45763;-55
2023/01/29 02:57:41;;;;;;;;;48.25;41.50;;;;;4.47;55.25;102244.22;5033200;28;45516;-52
2023/01/29 03:00:39;;;;;;;;;55.75;44.75;;;;;4.48;55.11;102238.16;5034541;28;45567;-58
2023/01/29 03:03:17;;;;;;;;;44.50;40.00;;;;;4.48;55.46;102225.13;5031250;28;45417;-56
2023/01/29 03:06:10;;;;;;;;;54.00;43.50;;;;;4.47;54.48;102218.16;5021974;28;45557;-58
2023/01/29 03:08:44;;;;;;;;;50.50;41.25;;;;;4.47;54.86;102217.31;5024681;28;45467;-53
2023/01/29 03:11:14;;;;;;;;;49.25;39.25;;;;;4.46;55.42;102215.53;5033177;28;45422;-53
2023/01/29 03:13:48;;;;;;;;;48.50;37.50;;;;;4.47;54.33;102209.50;5035090;28;45381;-55
2023/01/29 03:16:23;;;;;;;;;56.00;46.00;;;;;4.49;55.22;102213.00;5026802;28;46472;-58
2023/01/29 03:18:55;;;;;;;;;48.75;39.50;;;;;4.47;54.96;102215.56;5035287;28;45479;-56
2023/01/29 03:32:37;;;;;;;;;51.50;43.00;;;;;4.46;55.61;102215.53;5032052;28;45408;-58
2023/01/29 03:35:07;;;;;;;;;53.75;44.25;;;;;4.45;55.46;102214.66;5035391;28;45413;-51
2023/01/29 03:37:42;;;;;;;;;57.50;45.50;;;;;4.42;55.69;102214.63;5036304;28;45411;-54
2023/01/29 03:40:09;;;;;;;;;57.00;45.50;;;;;4.44;55.88;102220.72;5038757;28;45437;-53
2023/01/29 03:42:52;;;;;;;;;59.50;49.00;;;;;4.40;56.02;102221.53;5037779;28;45548;-54
2023/01/29 03:45:47;;;;;;;;;56.00;48.00;;;;;4.38;56.13;102213.69;5038694;28;45447;-57
2023/01/29 03:48:48;;;;;;;;;56.00;47.25;;;;;4.38;56.26;102224.13;5027107;28;45475;-58
2023/01/29 03:51:37;;;;;;;;;58.75;46.50;;;;;4.37;56.37;102221.47;5004277;28;45499;-57
2023/01/29 03:54:25;;;;;;;;;60.25;47.00;;;;;4.32;56.21;102224.00;5037947;28;45396;-56
2023/01/29 03:57:05;;;;;;;;;57.75;45.50;;;;;4.32;56.99;102228.34;5037685;28;45469;-57
2023/01/29 03:59:47;;;;;;;;;63.25;48.75;;;;;4.28;57.17;102214.41;5038240;28;45508;-54
2023/01/29 04:02:26;;;;;;;;;50.50;42.50;;;;;4.28;56.76;102216.13;5037280;28;45515;-57
2023/01/29 04:04:56;;;;;;;;;64.50;46.75;;;;;4.29;56.44;102215.25;5038158;28;45472;-53
2023/01/29 04:07:23;;;;;;;;;57.75;47.00;;;;;4.22;56.60;102209.09;5037454;28;45368;-54
2023/01/29 04:10:16;;;;;;;;;50.50;44.75;;;;;4.26;56.34;102208.28;5038094;28;46387;-59
2023/01/29 04:12:49;;;;;;;;;63.00;48.75;;;;;4.27;57.09;102219.56;5034304;28;45323;-54
2023/01/29 04:15:16;;;;;;;;;52.50;43.50;;;;;4.25;56.96;102213.47;5038581;28;45453;-58
2023/01/29 04:17:52;;;;;;;;;55.75;47.00;;;;;4.24;56.64;102222.13;5037151;28;45366;-52
2023/01/29 04:20:19;;;;;;;;;52.50;41.25;;;;;4.17;56.61;102219.41;5037074;28;45921;-55
2023/01/29 04:22:47;;;;;;;;;49.25;43.00;;;;;4.18;57.22;102215.97;5036094;28;45522;-56
2023/01/29 04:25:18;;;;;;;;;57.00;44.75;;;;;4.16;57.64;102212.47;5037431;28;45440;-58
2023/01/29 04:27:52;;;;;;;;;52.75;45.50;;;;;4.18;57.37;102220.28;5038111;28;45532;-57
2023/01/29 04:30:36;;;;;;;;;59.00;48.75;;;;;4.16;57.11;102225.50;5035825;28;45723;-58
2023/01/29 04:33:22;;;;;;;;;63.25;47.75;;;;;4.15;57.73;102221.13;5036693;28;45436;-56
2023/01/29 04:36:15;;;;;;;;;61.25;47.50;;;;;4.11;57.01;102227.13;5024391;28;45434;-59
2023/01/29 04:38:57;;;;;;;;;59.00;46.50;;;;;4.07;57.48;102222.72;5033304;28;45479;-51
2023/01/29 04:41:40;;;;;;;;;48.25;44.50;;;;;4.04;58.55;102229.59;5036970;28;46151;-56
2023/01/29 04:44:13;;;;;;;;;60.25;48.75;;;;;4.02;58.03;102220.88;5037901;28;45345;-56
2023/01/29 04:46:51;;;;;;;;;54.25;46.25;;;;;4.02;57.85;102224.34;5037401;28;45353;-53
2023/01/29 04:49:44;;;;;;;;;61.25;48.75;;;;;3.99;58.63;102227.78;5023579;28;45416;-53
2023/01/29 04:52:31;;;;;;;;;61.50;45.75;;;;;3.98;57.55;102225.16;5035499;28;45355;-56
2023/01/29 04:55:19;;;;;;;;;54.50;46.25;;;;;3.97;57.21;102228.59;5037366;28;45547;-59
2023/01/29 04:57:59;;;;;;;;;56.75;47.75;;;;;3.96;58.15;102234.66;5036884;28;45681;-50
2023/01/29 05:00:45;;;;;;;;;53.50;43.75;;;;;4.00;58.08;102233.84;5037620;28;45487;-53
2023/01/29 05:03:14;;;;;;;;;55.50;43.50;;;;;4.01;58.01;102235.63;5036239;28;47225;-56
2023/01/29 05:05:42;;;;;;;;;58.00;45.75;;;;;3.97;58.45;102236.41;5037069;28;45476;-57
2023/01/29 05:08:12;;;;;;;;;59.00;47.50;;;;;3.98;58.60;102232.97;5037004;28;45418;-56
2023/01/29 05:10:38;;;;;;;;;59.00;46.00;;;;;3.97;57.74;102229.47;5037210;28;45471;-58
2023/01/29 05:13:05;;;;;;;;;51.75;45.00;;;;;4.01;58.11;102233.03;5036158;28;46228;-57
2023/01/29 05:15:37;;;;;;;;;46.50;41.50;;;;;4.01;57.78;102233.03;5037143;28;45397;-58
2023/01/29 05:18:07;;;;;;;;;51.50;43.00;;;;;4.01;58.20;102234.75;5036325;28;45524;-53
2023/01/29 05:20:37;;;;;;;;;52.50;44.25;;;;;4.01;57.83;102230.41;5036299;28;45510;-55
2023/01/29 05:23:03;;;;;;;;;52.00;44.00;;;;;3.96;58.08;102222.53;5035409;28;46221;-57
2023/01/29 05:25:31;;;;;;;;;50.50;45.50;;;;;3.96;58.29;102221.66;5036998;28;45487;-56
2023/01/29 05:28:06;;;;;;;;;49.25;43.00;;;;;3.96;58.12;102221.66;5036504;28;45521;-55
2023/01/29 05:30:36;;;;;;;;;43.25;38.25;;;;;3.96;57.70;102214.72;5036884;28;45487;-55
2023/01/29 05:33:02;;;;;;;;;51.25;44.75;;;;;3.91;58.22;102213.75;5036067;28;46017;-55
2023/01/29 05:35:28;;;;;;;;;47.25;39.50;;;;;3.91;58.04;102212.88;5036623;28;45531;-57
2023/01/29 05:37:55;;;;;;;;;48.50;41.75;;;;;3.89;58.32;102217.16;5030606;28;45563;-50
2023/01/29 05:40:22;;;;;;;;;50.00;42.25;;;;;3.89;57.45;102215.44;5036843;28;45453;-52
2023/01/29 05:42:47;;;;;;;;;48.75;43.00;;;;;3.91;57.73;102215.47;5035290;28;45367;-57
2023/01/29 05:45:12;;;;;;;;;48.25;40.75;;;;;3.91;57.58;102215.47;5036417;28;45415;-49
2023/01/29 05:47:38;;;;;;;;;47.75;43.00;;;;;3.88;57.88;102218.03;5035552;28;45377;-53
2023/01/29 05:50:04;;;;;;;;;55.75;41.25;;;;;3.88;58.46;102221.50;5036611;28;45329;-56
2023/01/29 05:52:30;;;;;;;;;54.25;44.50;;;;;3.86;58.33;102225.78;5034071;28;46967;-56
2023/01/29 05:54:55;;;;;;;;;49.00;42.00;;;;;3.86;57.66;102222.31;5034645;28;45745;-55
2023/01/29 05:57:21;;;;;;;;;42.75;39.50;;;;;3.86;58.41;102222.31;5036332;28;45630;-53
2023/01/29 05:59:46;;;;;;;;;60.00;45.50;;;;;3.84;57.54;102229.22;5030944;28;46179;-51
2023/01/29 06:02:11;;;;;;;;;43.50;41.00;;;;;3.85;57.84;102217.97;5034589;28;46236;-56
2023/01/29 06:04:36;;;;;;;;;40.75;37.25;;;;;3.86;58.26;102228.41;5035459;28;45442;-59
2023/01/29 06:07:03;;;;;;;;;46.25;42.00;;;;;3.86;57.58;102225.78;5036153;28;45542;-56
2023/01/29 06:09:29;;;;;;;;;48.00;42.00;;;;;3.87;57.63;102222.38;5017329;28;45549;-56
2023/01/29 06:11:54;;;;;;;;;55.75;43.50;;;;;3.88;57.66;102225.84;5035461;28;45714;-59
2023/01/29 06:14:19;;;;;;;;;44.75;41.50;;;;;3.85;58.00;102223.19;5034989;28;47415;-60
2023/01/29 06:16:44;;;;;;;;;54.75;45.25;;;;;3.90;58.08;102231.97;5018261;28;45503;-54
2023/01/29 06:19:10;;;;;;;;;49.00;43.50;;;;;3.89;58.85;102238.88;5035150;28;45515;-59
2023/01/29 06:21:35;;;;;;;;;52.00;45.25;;;;;3.87;58.25;102234.47;5034513;28;45625;-55
2023/01/29 06:24:00;;;;;;;;;53.00;43.00;;;;;3.84;58.78;102237.03;5035885;28;45479;-57
2023/01/29 06:26:26;;;;;;;;;58.00;46.25;;;;;3.85;58.63;102241.41;5034576;28;45562;-52
2023/01/29 06:28:51;;;;;;;;;54.25;44.75;;;;;3.80;58.63;102241.31;5036257;28;45420;-54
2023/01/29 06:31:17;;;;;;;;;48.50;43.25;;;;;3.78;59.15;102235.19;5034835;28;50437;-55
2023/01/29 06:33:43;;;;;;;;;48.00;41.75;;;;;3.75;59.12;102235.13;5035842;28;45404;-58
2023/01/29 06:36:08;;;;;;;;;60.00;47.50;;;;;3.77;59.55;102249.06;5035209;28;45699;-57
2023/01/29 06:38:34;;;;;;;;;55.25;42.00;;;;;3.79;59.48;102241.25;5035846;28;45534;-59
2023/01/29 06:41:06;;;;;;;;;52.00;45.25;;;;;3.78;58.90;102252.53;5034880;28;46205;-57
2023/01/29 06:43:32;;;;;;;;;54.75;45.50;;;;;3.76;59.45;102250.78;5034540;28;45431;-58
2023/01/29 06:45:57;;;;;;;;;49.50;44.00;;;;;3.74;59.18;102254.22;5035252;28;45499;-56
2023/01/29 06:48:23;;;;;;;;;51.50;44.75;;;;;3.72;59.33;102248.97;5035676;28;45486;-56
2023/01/29 06:50:49;;;;;;;;;51.25;42.50;;;;;3.69;59.14;102248.91;5035461;28;46308;-55
2023/01/29 06:53:16;;;;;;;;;45.75;40.75;;;;;3.70;58.96;102254.97;5032492;28;45509;-53
2023/01/29 06:55:42;;;;;;;;;46.25;41.75;;;;;3.71;58.81;102257.63;5032482;28;45530;-55
2023/01/29 06:58:10;;;;;;;;;55.00;45.50;;;;;3.69;59.09;102240.22;5033998;28;45423;-58
2023/01/29 07:00:35;;;;;;;;;57.00;44.25;;;;;3.74;59.61;102254.22;5035355;28;47948;-58
2023/01/29 07:03:01;;;;;;;;;60.75;46.75;;;;;3.74;59.11;102249.00;5034132;28;45431;-55
2023/01/29 07:05:27;;;;;;;;;52.25;44.50;;;;;3.75;58.85;102254.22;5034087;28;45499;-52
2023/01/29 07:07:53;;;;;;;;;49.00;41.25;;;;;3.71;58.86;102251.56;5034273;28;45399;-59
2023/01/29 07:10:18;;;;;;;;;56.50;46.25;;;;;3.75;59.02;102249.03;5034161;28;45534;-55
2023/01/29 07:12:43;;;;;;;;;50.00;43.25;;;;;3.75;59.85;102253.34;5037052;28;45330;-52
2023/01/29 07:15:11;;;;;;;;;54.00;46.00;;;;;3.75;59.33;102254.22;5034279;28;45412;-53
2023/01/29 07:17:36;;;;;;;;;51.50;44.50;;;;;3.78;58.83;102257.75;5034474;28;45479;-57
2023/01/29 07:20:02;;;;;;;;;59.50;47.00;;;;;3.74;59.30;102254.22;5035233;28;45440;-57
2023/01/29 07:22:27;;;;;;;;;59.25;46.75;;;;;3.79;58.80;102262.09;5032315;28;45499;-54
2023/01/29 07:24:52;;;;;;;;;46.00;40.75;;;;;3.72;59.65;102240.28;5033075;28;48222;-52
2023/01/29 07:27:17;;;;;;;;;54.75;45.50;;;;;3.76;59.66;102257.69;5032782;28;45907;-53
2023/01/29 07:29:43;;;;;;;;;49.50;43.00;;;;;3.74;59.51;102251.59;5035078;28;46288;-56
2023/01/29 07:32:08;;;;;;;;;56.75;46.50;;;;;3.75;59.51;102261.16;5033661;28;45551;-55
2023/01/29 07:34:33;;;;;;;;;49.25;43.00;;;;;3.75;59.84;102255.94;5035186;28;45451;-55
2023/01/29 07:36:59;;;;;;;;;48.00;42.25;;;;;3.72;59.27;102250.69;5033887;28;45540;-56
2023/01/29 07:39:24;;;;;;;;;55.25;44.75;;;;;3.75;59.41;102262.03;5035051;28;46132;-54
2023/01/29 07:41:49;;;;;;;;;30.00;28.50;;;;;3.74;59.84;102254.22;5033029;28;45420;-59
2023/01/29 07:44:15;;;;;;;;;55.50;46.00;;;;;3.73;59.38;102249.84;5034153;28;45590;-57
2023/01/29 07:46:40;;;;;;;;;57.00;45.25;;;;;3.75;59.74;102267.22;5034108;28;45562;-56
2023/01/29 07:49:05;;;;;;;;;54.75;45.25;;;;;3.76;59.28;102257.69;5033658;28;46308;-51
2023/01/29 07:51:31;;;;;;;;;58.50;45.50;;;;;3.74;58.88;102256.81;5033522;28;45489;-55
2023/01/29 07:53:56;;;;;;;;;52.75;44.25;;;;;3.74;59.16;102264.63;5033973;28;45451;-53
2023/01/29 07:56:21;;;;;;;;;60.00;46.25;;;;;3.74;59.41;102270.69;5034644;28;45380;-58
2023/01/29 07:58:47;;;;;;;;;53.75;46.00;;;;;3.74;59.42;102265.50;5033817;28;46129;-52
2023/01/29 08:01:12;;;;;;;;;60.75;46.25;;;;;3.72;59.43;102261.09;5032885;28;45491;-53
2023/01/29 08:03:38;;;;;;;;;54.50;45.25;;;;;3.71;59.39;102265.44;5033806;28;45392;-53
2023/01/29 08:06:03;;;;;;;;;52.50;44.50;;;;;3.68;59.67;102265.38;5034777;28;45353;-53
2023/01/29 08:08:29;;;;;;;;;57.00;45.50;;;;;3.66;58.91;102256.66;5033691;28;45992;-56
2023/01/29 08:10:54;;;;;;;;;56.00;44.50;;;;;3.56;59.37;102246.03;5034634;28;45369;-54
2023/01/29 08:13:20;;;;;;;;;52.25;44.50;;;;;3.54;59.38;102253.78;5015894;28;45456;-54
2023/01/29 08:15:45;;;;;;;;;47.75;43.25;;;;;3.57;59.21;102264.25;5034596;28;45498;-55
2023/01/29 08:18:12;;;;;;;;;53.00;45.50;;;;;3.58;59.16;102265.16;5001636;28;47175;-57
2023/01/29 08:20:37;;;;;;;;;56.00;45.75;;;;;3.54;59.56;102259.00;5034509;28;45506;-52
2023/01/29 08:23:07;;;;;;;;;59.00;47.25;;;;;3.49;59.93;102258.03;5034506;28;45441;-55
2023/01/29 08:25:33;;;;;;;;;55.00;42.75;;;;;3.54;59.45;102256.41;5037086;28;45428;-55
2023/01/29 08:27:59;;;;;;;;;56.50;47.00;;;;;3.54;59.90;102261.59;5037023;28;45448;-55
2023/01/29 08:30:26;;;;;;;;;55.00;46.25;;;;;3.55;59.42;102255.56;5037803;28;45314;-57
2023/01/29 08:32:51;;;;;;;;;59.50;48.00;;;;;3.57;59.90;102255.59;5036707;28;45493;-52
2023/01/29 08:35:17;;;;;;;;;55.75;48.00;;;;;3.58;59.18;102258.22;5037777;28;45471;-58
2023/01/29 08:37:42;;;;;;;;;53.25;45.25;;;;;3.58;59.80;102260.84;5036699;28;46106;-54
2023/01/29 08:40:09;;;;;;;;;57.75;47.25;;;;;3.60;58.94;102266.03;5037268;28;49510;-56
2023/01/29 08:42:35;;;;;;;;;55.75;46.75;;;;;3.62;59.18;102259.16;5036766;28;45447;-56
2023/01/29 08:45:00;;;;;;;;;61.50;50.25;;;;;3.64;58.52;102257.47;5019675;28;45490;-52
2023/01/29 08:47:25;;;;;;;;;57.00;47.00;;;;;3.59;59.00;102259.97;5036263;28;51448;-56
2023/01/29 08:49:50;;;;;;;;;59.75;48.25;;;;;3.66;59.37;102274.00;5036824;28;45506;-58
2023/01/29 08:52:16;;;;;;;;;53.75;45.50;;;;;3.66;58.92;102272.25;5035282;28;50641;-57
2023/01/29 08:54:41;;;;;;;;;60.75;51.00;;;;;3.66;58.87;102269.66;5037580;28;45519;-53
2023/01/29 08:57:06;;;;;;;;;60.50;49.25;;;;;3.71;58.63;102273.25;5036354;28;46356;-53
2023/01/29 08:59:32;;;;;;;;;69.00;53.50;;;;;3.76;58.59;102276.81;5035162;28;47296;-52
2023/01/29 09:01:57;;;;;;;;;56.25;47.00;;;;;3.79;58.70;102289.00;5037202;28;48803;-54
2023/01/29 09:04:22;;;;;;;;;52.50;45.00;;;;;3.79;58.70;102299.41;5036537;28;45368;-55
2023/01/29 09:06:48;;;;;;;;;58.25;47.25;;;;;3.80;58.40;102310.69;5037248;28;45510;-61
2023/01/29 09:09:13;;;;;;;;;53.50;46.25;;;;;3.84;58.85;102309.91;5035040;28;45427;-56
2023/01/29 09:11:39;;;;;;;;;60.25;50.75;;;;;3.87;59.53;102305.66;5037568;28;45331;-55
2023/01/29 09:14:05;;;;;;;;;61.00;48.75;;;;;3.91;58.55;102303.97;5036114;28;45453;-56
2023/01/29 09:16:30;;;;;;;;;59.75;48.50;;;;;3.92;58.70;102306.63;5036990;28;46309;-54
2023/01/29 09:18:55;;;;;;;;;62.75;51.75;;;;;3.95;58.79;102301.47;5036133;28;45489;-53
2023/01/29 09:21:21;;;;;;;;;63.50;51.00;;;;;3.97;58.30;102302.34;5036458;28;45475;-56
2023/01/29 09:23:46;;;;;;;;;59.25;48.75;;;;;3.98;58.72;102300.66;5036143;28;45483;-53
2023/01/29 09:26:11;;;;;;;;;66.50;52.00;;;;;3.99;58.44;102303.28;5037004;28;45435;-53
2023/01/29 09:28:37;;;;;;;;;55.50;46.00;;;;;4.02;58.84;102301.56;5033578;28;45499;-53
2023/01/29 09:31:02;;;;;;;;;51.25;43.50;;;;;4.04;58.18;102308.56;5036251;28;45543;-56
2023/01/29 09:33:28;;;;;;;;;61.00;49.25;;;;;4.08;58.05;102301.69;5034623;28;45508;-54
2023/01/29 09:35:53;;;;;;;;;64.50;50.00;;;;;4.09;57.80;102298.25;5034989;28;45879;-59
2023/01/29 09:38:19;;;;;;;;;67.50;53.25;;;;;4.09;58.78;102293.06;5035676;28;47360;-56
2023/01/29 09:41:18;;;;;;;;;62.25;52.25;;;;;4.09;59.02;102293.91;5035759;28;45767;-52
2023/01/29 09:43:54;;;;;;;;;64.50;53.25;;;;;4.08;58.45;102297.34;5035828;28;45566;-56
2023/01/29 09:46:40;;;;;;;;;70.00;55.50;;;;;4.08;58.70;102302.56;5034852;28;45524;-60
2023/01/29 09:49:13;;;;;;;;;59.00;48.25;;;;;4.11;58.42;102304.34;5035335;28;45515;-53
2023/01/29 09:51:52;;;;;;;;;55.25;46.50;;;;;4.09;58.60;102293.91;5035177;28;45424;-54
2023/01/29 09:54:30;;;;;;;;;66.50;52.50;;;;;4.13;58.92;102290.50;5014105;28;45469;-56
2023/01/29 09:56:56;;;;;;;;;60.50;51.00;;;;;4.12;58.61;102293.97;5040231;28;45401;-57
2023/01/29 09:59:28;;;;;;;;;64.50;53.00;;;;;4.19;58.13;102292.34;5036127;28;45344;-57
2023/01/29 10:02:00;;;;;;;;;62.50;50.00;;;;;4.23;57.70;102299.38;5035726;28;45407;-55
2023/01/29 10:04:52;;;;;;;;;63.75;50.25;;;;;4.28;58.07;102297.72;5035476;28;45510;-57
2023/01/29 10:07:43;;;;;;;;;64.50;54.25;;;;;4.28;57.88;102305.53;5017883;28;47045;-58
2023/01/29 10:10:22;;;;;;;;;67.50;51.75;;;;;4.33;58.50;102306.50;5016438;28;45592;-58
2023/01/29 10:12:59;;;;;;;;;62.50;50.50;;;;;4.39;58.45;102301.41;5035552;28;45453;-51
2023/01/29 10:15:30;;;;;;;;;66.25;52.50;;;;;4.45;58.38;102297.16;5046984;28;45485;-56
2023/01/29 10:18:35;;;;;;;;;64.75;52.50;;;;;4.48;57.99;102290.25;5036104;28;45445;-57
2023/01/29 10:21:31;;;;;;;;;67.25;53.00;;;;;4.51;58.28;102290.31;5034673;28;45555;-51
2023/01/29 10:24:05;;;;;;;;;63.00;50.25;;;;;4.55;57.96;102289.53;5028580;28;45598;-55
2023/01/29 10:26:33;;;;;;;;;63.75;51.00;;;;;4.58;57.53;102294.78;5035871;28;45540;-50
2023/01/29 10:29:04;;;;;;;;;26.25;21.50;;;;;4.58;57.94;102292.16;5036152;28;45399;-59
2023/01/29 10:31:35;;;;;;;;;68.00;54.25;;;;;4.61;57.95;102283.53;5035381;28;45489;-58
2023/01/29 10:34:13;;;;;;;;;62.00;51.75;;;;;4.66;57.73;102279.28;5034839;28;45514;-55
2023/01/29 10:36:46;;;;;;;;;63.75;52.25;;;;;4.70;57.60;102274.97;5035555;28;45475;-58
2023/01/29 10:39:19;;;;;;;;;61.00;51.75;;;;;4.68;57.52;102261.94;5035886;28;45438;-58
2023/01/29 10:42:13;;;;;;;;;44.75;41.25;;;;;4.68;57.62;102268.88;5034752;28;45433;-58
2023/01/29 10:45:03;;;;;;;;;67.50;54.00;;;;;4.72;58.75;102255.03;5025838;28;45296;-58
2023/01/29 10:48:03;;;;;;;;;53.50;44.75;;;;;4.72;57.51;102252.44;5035624;28;45418;-58
2023/01/29 10:50:49;;;;;;;;;63.50;52.75;;;;;4.75;57.62;102250.72;5034380;28;46120;-59
2023/01/29 10:53:37;;;;;;;;;57.25;48.25;;;;;4.79;57.91;102244.72;5035687;28;45422;-59
2023/01/29 10:56:14;;;;;;;;;58.25;47.25;;;;;4.83;57.76;102246.50;5033586;28;45456;-59
2023/01/29 10:58:58;;;;;;;;;69.25;56.50;;;;;4.83;57.77;102245.63;5035826;28;45447;-58
2023/01/29 11:01:25;;;;;;;;;60.25;51.00;;;;;4.84;57.30;102240.47;5020365;28;46319;-56
2023/01/29 11:04:02;;;;;;;;;58.75;47.25;;;;;4.90;57.63;102239.66;5035180;28;45396;-51
2023/01/29 11:06:34;;;;;;;;;66.00;50.75;;;;;4.89;56.70;102240.53;5034737;28;45530;-56
2023/01/29 11:09:08;;;;;;;;;62.25;50.25;;;;;4.91;57.39;102237.94;5034441;28;45574;-53
2023/01/29 11:11:48;;;;;;;;;62.00;51.00;;;;;4.92;57.38;102232.75;5035308;28;45498;-52
2023/01/29 11:14:21;;;;;;;;;54.25;47.50;;;;;4.97;56.76;102233.69;5035013;28;45364;-53
2023/01/29 11:16:47;;;;;;;;;58.25;48.75;;;;;4.96;57.09;102223.25;5035477;28;45400;-53
2023/01/29 11:19:14;;;;;;;;;55.75;46.00;;;;;5.04;57.49;102222.47;5034609;28;45563;-55
2023/01/29 11:22:00;;;;;;;;;63.00;51.25;;;;;5.11;56.89;102219.97;5032858;28;46381;-54
2023/01/29 11:24:26;;;;;;;;;52.25;44.75;;;;;5.15;57.07;102224.34;5033935;28;45409;-54
2023/01/29 11:26:56;;;;;;;;;55.50;45.50;;;;;5.20;56.94;102222.69;5032868;28;45531;-58
2023/01/29 11:29:43;;;;;;;;;56.50;46.00;;;;;5.23;56.70;102212.28;5035126;28;45469;-60
2023/01/29 11:32:13;;;;;;;;;61.25;47.75;;;;;5.26;56.88;102209.72;5039441;28;46658;-60
2023/01/29 11:35:01;;;;;;;;;52.25;45.00;;;;;5.28;56.57;102213.22;5043523;28;45530;-60
2023/01/29 11:37:37;;;;;;;;;56.25;46.00;;;;;5.35;56.35;102216.78;5033948;28;45484;-59
2023/01/29 11:40:18;;;;;;;;;45.25;40.75;;;;;5.40;56.61;102204.66;5029126;28;45460;-60
2023/01/29 11:42:46;;;;;;;;;45.25;41.25;;;;;5.45;56.04;102201.25;5022870;28;45370;-59
2023/01/29 11:45:31;;;;;;;;;36.50;35.50;;;;;5.50;55.44;102199.56;5016458;28;45477;-59
2023/01/29 11:47:57;;;;;;;;;39.50;38.75;;;;;5.51;55.45;102192.66;5038788;28;45515;-60
2023/01/29 11:50:32;;;;;;;;;41.75;37.75;;;;;5.53;55.36;102186.59;5033856;28;45537;-60
2023/01/29 11:53:00;;;;;;;;;33.75;32.75;;;;;5.57;54.62;102187.47;5023192;28;45498;-61
2023/01/29 11:55:30;;;;;;;;;26.00;24.00;;;;;5.57;54.70;102176.19;5034448;28;45551;-61
2023/01/29 11:58:00;;;;;;;;;17.50;14.75;;;;;5.62;53.77;102184.94;5017626;28;45503;-61
2023/01/29 12:00:32;;;;;;;;;17.75;15.25;;;;;5.63;53.93;102181.44;5037485;28;45356;-61
2023/01/29 12:03:20;;;;;;;;;14.00;13.00;;;;;5.67;53.65;102191.94;5016897;28;46472;-58
2023/01/29 12:05:59;;;;;;;;;12.25;12.25;;;;;5.67;53.42;102189.34;5037734;28;45538;-58